Time;durP1;ratioP1;P1;durP2;ratioP2;P2;SDS_P1;SDS_P2;PMS_P1;PMS_P2;Temp;Humidity;BMP_temperature;BMP_pressure;BME280_temperature;BME280_humidity;BME280_pressure;Samples;Min_cycle;Max_cycle;Signal;HPM_P1;HPM_P2
2023/01/14 00:01:19;;;;;;;;;;;;;;;11.61;54.80;100540.75;4960867;28;6991;-72
2023/01/14 00:03:46;;;;;;;;;;;;;;;11.60;54.96;100531.31;4987300;28;6804;-71
2023/01/14 00:06:15;;;;;;;;;;;;;;;11.59;54.96;100529.53;4963305;28;7152;-71
2023/01/14 00:08:41;;;;;;;;;;;;;;;11.58;54.61;100530.34;4988731;28;8766;-72
2023/01/14 00:11:09;;;;;;;;;;;;;;;11.53;54.67;100531.03;4972086;28;7209;-71
2023/01/14 00:13:38;;;;;;;;;;;;;;;11.52;54.61;100539.53;4987815;28;7042;-72
2023/01/14 00:16:09;;;;;;;;;;;;;;;11.50;54.39;100535.13;4963954;28;6800;-71
2023/01/14 00:18:36;;;;;;;;;;;;;;;11.45;54.34;100532.34;4975443;28;6812;-71
2023/01/14 00:21:14;;;;;;;;;;;;;;;11.41;54.72;100535.59;4994447;28;7259;-72
2023/01/14 00:23:41;;;;;;;;;;;;;;;11.37;54.71;100536.22;4989650;28;6864;-73
2023/01/14 00:26:14;;;;;;;;;;;;;;;11.36;54.69;100532.81;4941826;28;6984;-72
2023/01/14 00:28:41;;;;;;;;;;;;;;;11.36;54.86;100534.47;4946119;28;6994;-71
2023/01/14 00:31:10;;;;;;;;;;;;;;;11.35;54.65;100533.63;4953047;28;8819;-72
2023/01/14 00:33:38;;;;;;;;;;;;;;;11.33;55.02;100540.34;4972217;28;7293;-72
2023/01/14 00:36:07;;;;;;;;;;;;;;;11.34;54.76;100541.22;4952858;28;7000;-71
2023/01/14 00:38:33;;;;;;;;;;;;;;;11.31;54.69;100546.22;4957346;28;6800;-72
2023/01/14 00:41:03;;;;;;;;;;;;;;;11.30;54.82;100539.31;4963945;28;6800;-71
2023/01/14 00:43:29;;;;;;;;;;;;;;;11.31;55.08;100543.66;4964612;28;7130;-72
2023/01/14 00:45:54;;;;;;;;;;;;;;;11.30;54.75;100552.16;4959346;28;6772;-71
2023/01/14 00:48:20;;;;;;;;;;;;;;;11.30;55.15;100544.44;4960693;28;6848;-72
2023/01/14 00:50:46;;;;;;;;;;;;;;;11.32;55.68;100540.28;4960244;28;6776;-72
2023/01/14 00:53:11;;;;;;;;;;;;;;;11.38;55.23;100548.25;4961857;28;7199;-71
2023/01/14 00:55:37;;;;;;;;;;;;;;;11.43;55.18;100546.81;4959668;28;7120;-71
2023/01/14 00:58:02;;;;;;;;;;;;;;;11.48;55.08;100540.19;4974781;28;7228;-72
2023/01/14 01:00:28;;;;;;;;;;;;;;;11.54;54.78;100549.88;4977862;28;6784;-72
2023/01/14 01:02:54;;;;;;;;;;;;;;;11.54;54.94;100542.19;4931898;28;7209;-71
2023/01/14 01:05:19;;;;;;;;;;;;;;;11.53;54.72;100546.41;4962687;28;7172;-72
2023/01/14 01:07:45;;;;;;;;;;;;;;;11.55;55.07;100538.81;4993367;28;7105;-72
2023/01/14 01:10:11;;;;;;;;;;;;;;;11.57;54.67;100544.88;4989055;28;7339;-72
2023/01/14 01:12:37;;;;;;;;;;;;;;;11.57;54.96;100552.56;4975564;28;7130;-71
2023/01/14 01:15:03;;;;;;;;;;;;;;;11.59;54.97;100553.53;4956321;28;6780;-72
2023/01/14 01:17:29;;;;;;;;;;;;;;;11.61;55.11;100556.16;4983618;28;6959;-72
2023/01/14 01:19:54;;;;;;;;;;;;;;;11.65;54.96;100537.50;4958489;28;7184;-72
2023/01/14 01:22:21;;;;;;;;;;;;;;;11.69;54.79;100552.28;4959842;28;6987;-71
2023/01/14 01:24:46;;;;;;;;;;;;;;;11.69;54.45;100554.84;4961115;28;6808;-71
2023/01/14 01:27:12;;;;;;;;;;;;;;;11.66;54.48;100549.53;4955456;28;6784;-72
2023/01/14 01:29:38;;;;;;;;;;;;;;;11.60;54.91;100537.31;4958679;28;7184;-72
2023/01/14 01:32:04;;;;;;;;;;;;;;;11.53;54.45;100561.81;4964252;28;7126;-72
2023/01/14 01:34:29;;;;;;;;;;;;;;;11.48;54.22;100570.13;4963938;28;6836;-72
2023/01/14 01:36:55;;;;;;;;;;;;;;;11.43;54.56;100571.56;4959819;28;6783;-71
2023/01/14 01:39:21;;;;;;;;;;;;;;;11.40;54.50;100572.31;4990142;28;6853;-72
2023/01/14 01:41:46;;;;;;;;;;;;;;;11.37;54.68;100572.16;4982288;28;6962;-72
2023/01/14 01:44:12;;;;;;;;;;;;;;;11.32;54.51;100571.94;4959049;28;6795;-72
2023/01/14 01:46:39;;;;;;;;;;;;;;;11.30;54.89;100570.09;4959297;28;6944;-71
2023/01/14 01:49:33;;;;;;;;;;;;;;;11.29;54.95;100570.91;4965511;28;6849;-72
2023/01/14 01:52:33;;;;;;;;;;;;;;;11.30;55.14;100564.97;4961313;28;7200;-71
2023/01/14 01:55:08;;;;;;;;;;;;;;;11.31;55.24;100567.63;4991356;28;7114;-71
2023/01/14 01:57:33;;;;;;;;;;;;;;;11.34;55.38;100562.63;4990721;28;7353;-71
2023/01/14 02:00:06;;;;;;;;;;;;;;;11.37;55.16;100570.50;4962435;28;6784;-71
2023/01/14 02:02:33;;;;;;;;;;;;;;;11.37;55.08;100567.03;4946285;28;7165;-71
2023/01/14 02:05:00;;;;;;;;;;;;;;;11.37;55.32;100559.34;4978235;28;6776;-71
2023/01/14 02:07:26;;;;;;;;;;;;;;;11.36;55.14;100561.03;4961684;28;7149;-72
2023/01/14 02:10:04;;;;;;;;;;;;;;;11.32;54.84;100542.84;4976517;28;6824;-71
2023/01/14 02:13:06;;;;;;;;;;;;;;;11.27;54.86;100546.88;4960177;28;7179;-71
2023/01/14 02:16:00;;;;;;;;;;;;;;;11.19;54.77;100541.38;4947199;28;6959;-71
2023/01/14 02:18:51;;;;;;;;;;;;;;;11.15;55.15;100550.63;4974900;28;7007;-71
2023/01/14 02:21:31;;;;;;;;;;;;;;;11.10;54.96;100547.84;4946336;28;6796;-72
2023/01/14 02:24:55;;;;;;;;;;;;;;;11.04;54.98;100544.09;4948458;28;6804;-72
2023/01/14 02:27:38;;;;;;;;;;;;;;;10.97;54.76;100538.66;4947081;28;7254;-72
2023/01/14 02:30:31;;;;;;;;;;;;;;;10.92;55.04;100532.44;4974882;28;7011;-72
2023/01/14 02:33:31;;;;;;;;;;;;;;;10.87;55.12;100533.91;4962038;28;11403;-72
2023/01/14 02:36:38;;;;;;;;;;;;;;;10.82;55.16;100528.53;4963921;28;6800;-72
2023/01/14 02:39:21;;;;;;;;;;;;;;;10.75;55.38;100517.91;4990526;28;7243;-72
2023/01/14 02:45:07;;;;;;;;;;;;;;;10.64;55.40;100505.44;4959257;28;6804;-71
2023/01/14 02:47:37;;;;;;;;;;;;;;;10.63;55.39;100513.06;4976359;28;7279;-71
2023/01/14 02:50:04;;;;;;;;;;;;;;;10.60;55.60;100503.53;4962063;28;7032;-71
2023/01/14 02:52:29;;;;;;;;;;;;;;;10.58;55.82;100500.00;4963543;28;7392;-71
2023/01/14 02:55:00;;;;;;;;;;;;;;;10.54;55.34;100493.84;4964690;28;6784;-72
2023/01/14 02:57:57;;;;;;;;;;;;;;;10.53;55.62;100480.97;4980900;28;6792;-71
2023/01/14 03:00:46;;;;;;;;;;;;;;;10.51;55.97;100482.56;4962008;28;7344;-72
2023/01/14 03:04:02;;;;;;;;;;;;;;;10.49;55.91;100468.81;4988971;28;6804;-72
2023/01/14 03:07:12;;;;;;;;;;;;;;;10.50;56.08;100470.56;4973044;28;7467;-71
2023/01/14 03:10:05;;;;;;;;;;;;;;;10.51;56.00;100460.41;4965045;28;7020;-74
2023/01/14 03:12:40;;;;;;;;;;;;;;;10.52;56.09;100458.69;4956674;28;6820;-73
2023/01/14 03:15:52;;;;;;;;;;;;;;;10.58;56.07;100458.16;4956326;28;7543;-74
2023/01/14 03:18:50;;;;;;;;;;;;;;;10.58;56.16;100448.75;4963064;28;7533;-73
2023/01/14 03:21:29;;;;;;;;;;;;;;;10.61;56.07;100448.88;4964145;28;7193;-73
2023/01/14 03:24:23;;;;;;;;;;;;;;;10.62;56.20;100444.66;4965072;28;8040;-74
2023/01/14 03:26:54;;;;;;;;;;;;;;;10.62;56.35;100445.56;4963740;28;7120;-74
2023/01/14 03:29:34;;;;;;;;;;;;;;;10.65;55.94;100439.66;4979980;28;7035;-73
2023/01/14 03:32:35;;;;;;;;;;;;;;;10.69;56.57;100436.47;4973709;28;6811;-73
2023/01/14 03:35:18;;;;;;;;;;;;;;;10.71;56.71;100442.53;4916557;28;7242;-73
2023/01/14 03:38:03;;;;;;;;;;;;;;;10.77;56.42;100439.38;4963432;28;6840;-72
2023/01/14 03:40:34;;;;;;;;;;;;;;;10.82;56.46;100445.63;4996104;28;6997;-73
2023/01/14 03:43:14;;;;;;;;;;;;;;;10.84;56.39;100434.63;4990023;28;6871;-73
2023/01/14 03:45:42;;;;;;;;;;;;;;;10.85;56.52;100425.25;4963946;28;7165;-72
2023/01/14 03:48:10;;;;;;;;;;;;;;;10.93;56.47;100416.25;4974010;28;7449;-73
2023/01/14 03:51:07;;;;;;;;;;;;;;;10.98;56.16;100419.88;4978506;28;7121;-73
2023/01/14 03:53:51;;;;;;;;;;;;;;;10.95;56.23;100411.16;4989887;28;6986;-73
2023/01/14 03:56:43;;;;;;;;;;;;;;;10.99;56.25;100405.38;4964960;28;7011;-72
2023/01/14 03:59:18;;;;;;;;;;;;;;;11.02;56.57;100410.66;4959642;28;6993;-73
2023/01/14 04:01:55;;;;;;;;;;;;;;;11.07;55.93;100398.03;4962580;28;6983;-73
2023/01/14 04:04:25;;;;;;;;;;;;;;;11.12;56.24;100401.72;4961120;28;7621;-73
2023/01/14 04:06:52;;;;;;;;;;;;;;;11.15;55.94;100399.28;4979457;28;6803;-73
2023/01/14 04:09:17;;;;;;;;;;;;;;;11.19;56.09;100400.28;4988139;28;7202;-72
2023/01/14 04:11:43;;;;;;;;;;;;;;;11.20;55.91;100404.59;4964230;28;6967;-72
2023/01/14 04:16:54;;;;;;;;;;;;;;;11.21;56.24;100381.59;4958084;28;7224;-73
2023/01/14 04:19:19;;;;;;;;;;;;;;;11.26;55.77;100386.94;4975419;28;8218;-73
2023/01/14 04:21:45;;;;;;;;;;;;;;;11.29;55.43;100373.34;4979182;28;6968;-73
2023/01/14 04:24:10;;;;;;;;;;;;;;;11.28;55.59;100366.47;4988672;28;7020;-73
2023/01/14 04:26:36;;;;;;;;;;;;;;;11.27;55.49;100363.03;4978729;28;6960;-73
2023/01/14 04:29:02;;;;;;;;;;;;;;;11.26;55.34;100353.59;4990157;28;6824;-73
2023/01/14 04:31:27;;;;;;;;;;;;;;;11.26;55.38;100348.44;4978223;28;7260;-73
2023/01/14 04:33:53;;;;;;;;;;;;;;;11.25;55.58;100345.00;4957552;28;7087;-73
2023/01/14 04:36:18;;;;;;;;;;;;;;;11.23;55.21;100338.94;4956126;28;6780;-73
2023/01/14 04:38:44;;;;;;;;;;;;;;;11.20;55.58;100338.81;4957456;28;6946;-73
2023/01/14 04:42:26;;;;;;;;;;;;;;;11.18;55.22;100332.69;4956159;28;6780;-73
2023/01/14 04:43:57;;;;;;;;;;;;;;;11.15;55.10;100339.38;4956562;28;6880;-73
2023/01/14 04:46:22;;;;;;;;;;;;;;;11.12;55.53;100340.13;4958418;28;7112;-73
2023/01/14 04:48:48;;;;;;;;;;;;;;;11.10;55.33;100339.16;4990316;28;6792;-73
2023/01/14 04:51:13;;;;;;;;;;;;;;;11.06;55.70;100329.59;4958348;28;6788;-73
2023/01/14 04:53:39;;;;;;;;;;;;;;;11.03;55.44;100322.63;4961895;28;6847;-72
2023/01/14 04:56:05;;;;;;;;;;;;;;;11.02;55.58;100327.72;4959383;28;7420;-73
2023/01/14 04:58:30;;;;;;;;;;;;;;;11.00;55.70;100319.06;4958098;28;7130;-73
2023/01/14 05:00:56;;;;;;;;;;;;;;;11.00;55.67;100316.50;4960541;28;7298;-73
2023/01/14 05:03:22;;;;;;;;;;;;;;;11.01;55.31;100310.53;4964248;28;6924;-72
2023/01/14 05:05:47;;;;;;;;;;;;;;;11.04;55.36;100305.56;4960243;28;6796;-72
2023/01/14 05:08:13;;;;;;;;;;;;;;;11.04;55.26;100292.75;4958297;28;7051;-73
2023/01/14 05:10:40;;;;;;;;;;;;;;;11.02;55.14;100296.94;4945510;28;8452;-73
2023/01/14 05:13:07;;;;;;;;;;;;;;;11.01;55.63;100290.91;4963636;28;6837;-72
2023/01/14 05:15:43;;;;;;;;;;;;;;;11.01;55.37;100290.91;4963898;28;7156;-73
2023/01/14 05:18:11;;;;;;;;;;;;;;;11.03;55.55;100288.44;4982441;28;7168;-72
2023/01/14 05:20:37;;;;;;;;;;;;;;;11.02;55.13;100282.41;4986355;28;6883;-72
2023/01/14 05:23:13;;;;;;;;;;;;;;;11.03;55.40;100276.47;4966435;28;6941;-72
2023/01/14 05:25:38;;;;;;;;;;;;;;;11.04;55.16;100274.78;4962958;28;6879;-73
2023/01/14 05:28:09;;;;;;;;;;;;;;;11.05;55.37;100271.41;4962282;28;6863;-73
2023/01/14 05:30:35;;;;;;;;;;;;;;;11.06;55.36;100268.03;4962750;28;7071;-72
2023/01/14 05:33:00;;;;;;;;;;;;;;;11.10;55.03;100269.91;4964529;28;6927;-73
2023/01/14 05:35:27;;;;;;;;;;;;;;;11.14;55.39;100255.53;4994792;28;6783;-73
2023/01/14 05:37:52;;;;;;;;;;;;;;;11.15;54.68;100250.50;4992695;28;6800;-73
2023/01/14 05:40:18;;;;;;;;;;;;;;;11.18;54.64;100245.47;4986847;28;6804;-73
2023/01/14 05:48:12;;;;;;;;;;;;;;;11.33;55.19;100218.75;4983801;28;6800;-74
2023/01/14 05:50:39;;;;;;;;;;;;;;;11.37;54.88;100212.91;4960329;28;6768;-72
2023/01/14 05:53:06;;;;;;;;;;;;;;;11.42;54.68;100196.03;4972481;28;7238;-73
2023/01/14 05:55:37;;;;;;;;;;;;;;;11.48;54.48;100196.25;4983111;28;7624;-73
2023/01/14 05:58:05;;;;;;;;;;;;;;;11.49;54.48;100195.47;4961916;28;6848;-73
2023/01/14 06:06:28;;;;;;;;;;;;;;;11.57;53.82;100185.50;4957370;28;6804;-72
2023/01/14 06:08:57;;;;;;;;;;;;;;;11.58;53.27;100176.09;4985119;28;7606;-72
2023/01/14 06:11:25;;;;;;;;;;;;;;;11.57;53.64;100169.22;4960947;28;7059;-73
2023/01/14 06:13:57;;;;;;;;;;;;;;;11.53;53.40;100165.66;4917333;28;79486;-73
2023/01/14 06:16:31;;;;;;;;;;;;;;;11.45;53.42;100155.09;4979056;28;6819;-73
2023/01/14 06:18:58;;;;;;;;;;;;;;;11.38;53.22;100147.94;4958703;28;6812;-73
2023/01/14 06:21:29;;;;;;;;;;;;;;;11.36;54.04;100131.63;4983780;28;7070;-73
2023/01/14 06:23:57;;;;;;;;;;;;;;;11.36;53.89;100140.19;4986977;28;7227;-72
2023/01/14 06:26:27;;;;;;;;;;;;;;;11.36;53.83;100132.50;4965573;28;6864;-73
2023/01/14 06:29:06;;;;;;;;;;;;;;;11.39;53.76;100132.63;4958935;28;7213;-73
2023/01/14 06:31:33;;;;;;;;;;;;;;;11.46;53.98;100115.78;4959228;28;6820;-73
2023/01/14 06:34:01;;;;;;;;;;;;;;;11.49;53.98;100110.78;4989952;28;6811;-72
2023/01/14 06:36:28;;;;;;;;;;;;;;;11.53;53.66;100116.88;4988968;28;6868;-72
2023/01/14 06:38:53;;;;;;;;;;;;;;;11.55;53.97;100109.25;4976255;28;6837;-72
2023/01/14 06:41:19;;;;;;;;;;;;;;;11.51;53.95;100108.25;4961010;28;6784;-72
2023/01/14 06:43:45;;;;;;;;;;;;;;;11.45;54.26;100102.91;4961356;28;7598;-73
2023/01/14 06:46:14;;;;;;;;;;;;;;;11.37;53.93;100107.69;4989657;28;6787;-73
2023/01/14 06:48:41;;;;;;;;;;;;;;;11.31;54.55;100099.78;4958077;28;6808;-73
2023/01/14 06:51:14;;;;;;;;;;;;;;;11.24;55.13;100091.81;4966306;28;6988;-73
2023/01/14 06:53:41;;;;;;;;;;;;;;;11.18;55.49;100089.00;4958964;28;7231;-73
2023/01/14 06:56:11;;;;;;;;;;;;;;;11.12;55.91;100083.66;4979117;28;7015;-73
2023/01/14 06:58:38;;;;;;;;;;;;;;;11.07;56.35;100074.88;4991750;28;6815;-73
2023/01/14 07:01:05;;;;;;;;;;;;;;;11.05;56.68;100069.66;4989632;28;7323;-73
2023/01/14 07:03:31;;;;;;;;;;;;;;;11.03;57.08;100073.88;4976946;28;6954;-73
2023/01/14 07:05:59;;;;;;;;;;;;;;;11.01;56.97;100064.34;4963755;28;6783;-73
2023/01/14 07:08:26;;;;;;;;;;;;;;;10.98;57.13;100053.16;4962549;28;11411;-73
2023/01/14 07:10:52;;;;;;;;;;;;;;;10.98;57.13;100053.16;4999171;28;8857;-73
2023/01/14 07:13:21;;;;;;;;;;;;;;;10.97;57.54;100045.44;4968215;28;6795;-73
2023/01/14 07:15:48;;;;;;;;;;;;;;;10.97;57.58;100043.72;4992665;28;6897;-72
2023/01/14 07:18:15;;;;;;;;;;;;;;;10.94;57.75;100019.63;4995166;28;9267;-73
2023/01/14 07:20:41;;;;;;;;;;;;;;;10.94;58.33;100014.50;4965533;28;9689;-73
2023/01/14 07:23:07;;;;;;;;;;;;;;;10.92;58.63;100004.22;4960049;28;9931;-73
2023/01/14 07:25:33;;;;;;;;;;;;;;;10.94;58.79;99996.56;4980988;28;9177;-73
2023/01/14 07:27:59;;;;;;;;;;;;;;;10.96;59.17;100005.19;4992663;28;6805;-73
2023/01/14 07:30:25;;;;;;;;;;;;;;;10.97;59.17;100002.69;4979340;28;6971;-73
2023/01/14 07:32:50;;;;;;;;;;;;;;;10.96;59.51;99985.56;4953024;28;7024;-73
2023/01/14 07:35:16;;;;;;;;;;;;;;;10.99;59.26;99987.38;4966392;28;6780;-73
2023/01/14 07:37:42;;;;;;;;;;;;;;;10.97;59.49;99981.31;4979453;28;9118;-72
2023/01/14 07:40:08;;;;;;;;;;;;;;;10.99;59.52;99964.31;4965988;28;6966;-73
2023/01/14 07:42:34;;;;;;;;;;;;;;;11.02;59.92;99955.88;4990666;28;7125;-73
2023/01/14 07:44:59;;;;;;;;;;;;;;;11.06;59.72;99956.03;4965149;28;6777;-73
2023/01/14 07:47:25;;;;;;;;;;;;;;;11.14;59.61;99958.00;4944270;28;7034;-73
2023/01/14 07:49:50;;;;;;;;;;;;;;;11.21;59.69;99948.06;4960852;28;6995;-73
2023/01/14 07:52:16;;;;;;;;;;;;;;;11.28;59.45;99943.13;4964843;28;7008;-73
2023/01/14 07:54:42;;;;;;;;;;;;;;;11.33;59.44;99939.06;4988701;28;9902;-73
2023/01/14 07:57:13;;;;;;;;;;;;;;;11.40;59.41;99930.78;4978796;28;6999;-73
2023/01/14 07:59:40;;;;;;;;;;;;;;;11.44;59.38;99926.63;4976914;28;6820;-73
2023/01/14 08:02:11;;;;;;;;;;;;;;;11.48;58.89;99919.09;4973274;28;7031;-72
2023/01/14 08:04:37;;;;;;;;;;;;;;;11.53;59.26;99922.72;4966518;28;6800;-73
2023/01/14 08:07:07;;;;;;;;;;;;;;;11.58;59.05;99914.28;4972922;28;7138;-73
2023/01/14 08:09:34;;;;;;;;;;;;;;;11.63;58.92;99911.06;4964858;28;7223;-73
2023/01/14 08:12:00;;;;;;;;;;;;;;;11.65;59.25;99906.00;4961776;28;6804;-73
2023/01/14 08:14:25;;;;;;;;;;;;;;;11.71;59.16;99903.66;4992720;28;6961;-73
2023/01/14 08:16:51;;;;;;;;;;;;;;;11.76;58.92;99893.56;4967594;28;6776;-73
2023/01/14 08:19:17;;;;;;;;;;;;;;;11.81;58.68;99880.06;4977095;28;8231;-73
2023/01/14 08:21:43;;;;;;;;;;;;;;;11.86;58.58;99876.75;4983038;28;7359;-73
2023/01/14 08:24:09;;;;;;;;;;;;;;;11.89;58.69;99876.88;4947503;28;7222;-73
2023/01/14 08:26:35;;;;;;;;;;;;;;;11.94;58.44;99860.81;4977060;28;6800;-73
2023/01/14 08:29:00;;;;;;;;;;;;;;;11.98;58.22;99858.34;4977313;28;10321;-73
2023/01/14 08:31:26;;;;;;;;;;;;;;;12.03;58.03;99849.13;4976028;28;6812;-73
2023/01/14 08:33:53;;;;;;;;;;;;;;;12.05;57.99;99845.78;4963043;28;7115;-73
2023/01/14 08:36:19;;;;;;;;;;;;;;;12.12;58.21;99843.41;4992848;28;7034;-73
2023/01/14 08:38:52;;;;;;;;;;;;;;;12.16;58.01;99828.16;4967253;28;6788;-73
2023/01/14 08:41:19;;;;;;;;;;;;;;;12.21;57.84;99810.31;4981084;28;7195;-73
2023/01/14 08:43:50;;;;;;;;;;;;;;;12.26;57.92;99802.75;4991700;28;6788;-73
2023/01/14 08:46:16;;;;;;;;;;;;;;;12.28;58.25;99791.72;4952487;28;7184;-73
2023/01/14 08:48:42;;;;;;;;;;;;;;;12.35;57.72;99773.06;4969936;28;6796;-73
2023/01/14 08:51:10;;;;;;;;;;;;;;;12.38;57.67;99772.28;4971053;28;7392;-73
2023/01/14 08:53:38;;;;;;;;;;;;;;;12.41;57.88;99764.69;4977828;28;6875;-73
2023/01/14 08:56:07;;;;;;;;;;;;;;;12.47;57.50;99762.28;4979845;28;7261;-73
2023/01/14 08:58:36;;;;;;;;;;;;;;;12.52;57.28;99764.16;4982485;28;6812;-73
2023/01/14 09:01:07;;;;;;;;;;;;;;;12.55;57.89;99754.81;4981372;28;6996;-73
2023/01/14 09:03:33;;;;;;;;;;;;;;;12.62;57.71;99756.72;4981326;28;6844;-73
2023/01/14 09:06:09;;;;;;;;;;;;;;;12.64;57.02;99749.94;4967641;28;7205;-73
2023/01/14 09:17:06;;;;;;;;;;;;;;;12.87;57.42;99721.44;4978857;28;6800;-73
2023/01/14 09:19:45;;;;;;;;;;;;;;;12.91;57.07;99706.97;4959292;28;6827;-73
2023/01/14 09:22:17;;;;;;;;;;;;;;;13.00;56.77;99708.91;4993782;28;6996;-73
2023/01/14 09:24:42;;;;;;;;;;;;;;;13.04;57.30;99697.91;4966029;28;6804;-73
2023/01/14 09:27:08;;;;;;;;;;;;;;;13.08;56.86;99694.56;4962764;28;6945;-73
2023/01/14 09:29:34;;;;;;;;;;;;;;;13.15;56.60;99681.03;4977276;28;6780;-73
2023/01/14 09:31:59;;;;;;;;;;;;;;;13.18;56.48;99675.06;4988548;28;6779;-73
2023/01/14 09:34:25;;;;;;;;;;;;;;;13.27;56.46;99659.00;4954365;28;6843;-75
2023/01/14 09:36:54;;;;;;;;;;;;;;;13.32;55.85;99657.41;4942039;28;7237;-74
2023/01/14 09:39:20;;;;;;;;;;;;;;;13.35;56.25;99647.22;4964626;28;7126;-73
2023/01/14 09:41:56;;;;;;;;;;;;;;;13.28;56.63;99645.31;4954242;28;7210;-73
2023/01/14 09:44:24;;;;;;;;;;;;;;;13.23;56.43;99619.47;4969206;28;6812;-73
2023/01/14 09:46:53;;;;;;;;;;;;;;;13.12;57.07;99623.47;4976339;28;6804;-73
2023/01/14 09:49:28;;;;;;;;;;;;;;;13.12;56.93;99620.91;4960236;28;6993;-73
2023/01/14 09:52:14;;;;;;;;;;;;;;;13.08;57.43;99608.78;4963888;28;7004;-74
2023/01/14 09:55:17;;;;;;;;;;;;;;;12.98;57.67;99635.97;4966518;28;6804;-73
2023/01/14 09:58:00;;;;;;;;;;;;;;;12.92;57.95;99621.25;4974951;28;7933;-73
2023/01/14 10:01:04;;;;;;;;;;;;;;;12.87;57.99;99633.13;4967003;28;7117;-73
2023/01/14 10:04:04;;;;;;;;;;;;;;;12.82;57.45;99620.13;4971674;28;6930;-73
2023/01/14 10:06:29;;;;;;;;;;;;;;;12.78;58.60;99601.19;4984171;28;6999;-73
2023/01/14 10:09:10;;;;;;;;;;;;;;;12.73;58.31;99589.94;4999403;28;6795;-73
2023/01/14 10:11:42;;;;;;;;;;;;;;;12.71;59.33;99606.13;4970998;28;6812;-73
2023/01/14 10:14:23;;;;;;;;;;;;;;;12.68;59.14;99595.78;4973793;28;7114;-73
2023/01/14 10:17:04;;;;;;;;;;;;;;;12.65;59.48;99617.13;4990554;28;7148;-73
2023/01/14 10:19:39;;;;;;;;;;;;;;;12.62;59.50;99597.34;4969943;28;6820;-72
2023/01/14 10:23:00;;;;;;;;;;;;;;;12.63;60.15;99577.66;4986090;28;6992;-72
2023/01/14 10:25:26;;;;;;;;;;;;;;;12.55;59.83;99590.28;4971872;28;6832;-73
2023/01/14 10:27:56;;;;;;;;;;;;;;;12.60;60.51;99560.44;4980215;28;6792;-73
2023/01/14 10:30:34;;;;;;;;;;;;;;;12.59;60.10;99565.53;4969335;28;7015;-73
2023/01/14 10:33:04;;;;;;;;;;;;;;;12.60;60.66;99557.00;4971858;28;6796;-73
2023/01/14 10:35:38;;;;;;;;;;;;;;;12.62;60.27;99566.50;4980977;28;7058;-73
2023/01/14 10:38:05;;;;;;;;;;;;;;;12.67;60.64;99551.19;4970437;28;7009;-72
2023/01/14 10:40:32;;;;;;;;;;;;;;;12.67;61.02;99546.06;4985723;28;6863;-73
2023/01/14 10:43:02;;;;;;;;;;;;;;;12.70;60.85;99538.44;4970223;28;6788;-73
2023/01/14 10:45:28;;;;;;;;;;;;;;;12.71;60.55;99511.00;4980366;28;7015;-72
2023/01/14 10:48:06;;;;;;;;;;;;;;;12.68;61.39;99504.09;4981500;28;7140;-72
2023/01/14 10:50:32;;;;;;;;;;;;;;;12.66;61.39;99502.34;4969283;28;7646;-73
2023/01/14 10:53:19;;;;;;;;;;;;;;;12.70;61.26;99491.28;4995205;28;6964;-73
2023/01/14 10:55:56;;;;;;;;;;;;;;;12.69;61.53;99486.97;4995175;28;7319;-73
2023/01/14 10:58:43;;;;;;;;;;;;;;;12.73;61.60;99470.78;4969125;28;6792;-73
2023/01/14 11:01:11;;;;;;;;;;;;;;;12.73;60.77;99461.38;4995211;28;6860;-73
2023/01/14 11:03:40;;;;;;;;;;;;;;;12.73;61.55;99450.22;4979546;28;6860;-73
2023/01/14 11:06:12;;;;;;;;;;;;;;;12.76;61.57;99448.59;4980775;28;6987;-72
2023/01/14 11:08:55;;;;;;;;;;;;;;;12.79;60.86;99434.94;4984346;28;6811;-72
2023/01/14 11:11:25;;;;;;;;;;;;;;;12.80;61.11;99428.09;4985933;28;6971;-72
2023/01/14 11:13:53;;;;;;;;;;;;;;;12.80;61.78;99426.38;4969216;28;7183;-73
2023/01/14 11:16:25;;;;;;;;;;;;;;;12.83;61.19;99408.44;4985007;28;6871;-73
2023/01/14 11:19:21;;;;;;;;;;;;;;;12.82;61.21;99416.16;4995877;28;7383;-73
2023/01/14 11:21:54;;;;;;;;;;;;;;;12.77;61.63;99390.31;4971936;28;6812;-73
2023/01/14 11:24:52;;;;;;;;;;;;;;;12.76;61.36;99393.75;4951447;28;7047;-72
2023/01/14 11:27:23;;;;;;;;;;;;;;;12.79;61.42;99357.81;4978073;28;6804;-73
2023/01/14 11:30:02;;;;;;;;;;;;;;;12.80;61.95;99367.25;4997098;28;6816;-73
2023/01/14 11:32:35;;;;;;;;;;;;;;;12.80;61.75;99368.97;4967648;28;6833;-73
2023/01/14 11:35:06;;;;;;;;;;;;;;;12.83;61.84;99354.44;4968713;28;7335;-72
2023/01/14 11:37:45;;;;;;;;;;;;;;;12.84;61.90;99330.47;4985060;28;6954;-72
2023/01/14 11:43:17;;;;;;;;;;;;;;;12.86;62.36;99341.69;4989246;28;6864;-72
2023/01/14 11:45:43;;;;;;;;;;;;;;;12.90;62.25;99319.47;4977335;28;7808;-72
2023/01/14 11:48:26;;;;;;;;;;;;;;;12.86;62.04;99323.69;4981578;28;6784;-73
2023/01/14 11:51:05;;;;;;;;;;;;;;;12.87;62.06;99316.81;4993943;28;6796;-72
2023/01/14 11:53:52;;;;;;;;;;;;;;;12.89;61.82;99303.16;4966265;28;6833;-73
2023/01/14 11:56:36;;;;;;;;;;;;;;;12.91;61.92;99306.63;4969705;28;6804;-72
2023/01/14 11:59:23;;;;;;;;;;;;;;;12.92;61.79;99284.34;4950000;28;7294;-72
2023/01/14 12:02:13;;;;;;;;;;;;;;;12.91;62.41;99288.63;4989835;28;6811;-72
2023/01/14 12:04:48;;;;;;;;;;;;;;;12.93;62.61;99286.09;4978973;28;6931;-75
2023/01/14 12:07:40;;;;;;;;;;;;;;;12.96;62.33;99267.28;4992079;28;7215;-73
2023/01/14 12:10:20;;;;;;;;;;;;;;;12.98;61.74;99275.91;4956549;28;8200;-74
2023/01/14 12:19:21;;;;;;;;;;;;;;;13.00;62.13;99248.50;4968905;28;6812;-73
2023/01/14 12:21:57;;;;;;;;;;;;;;;13.03;61.96;99238.25;4966573;28;6844;-73
2023/01/14 12:25:01;;;;;;;;;;;;;;;13.11;61.86;99235.84;4966016;28;7134;-73
2023/01/14 12:27:59;;;;;;;;;;;;;;;13.14;61.75;99205.91;4965999;28;6823;-73
2023/01/14 12:30:56;;;;;;;;;;;;;;;13.13;62.72;99195.59;4966136;28;7253;-73
2023/01/14 12:33:31;;;;;;;;;;;;;;;13.14;62.09;99195.63;4968544;28;7171;-73
2023/01/14 12:36:17;;;;;;;;;;;;;;;13.19;62.18;99194.00;4976893;28;6792;-73
2023/01/14 12:47:55;;;;;;;;;;;;;;;13.22;62.42;99167.44;4970586;28;6820;-73
2023/01/14 12:50:22;;;;;;;;;;;;;;;13.26;61.82;99145.22;4980825;28;6888;-73
2023/01/14 12:52:53;;;;;;;;;;;;;;;13.29;62.59;99164.16;4978722;28;6811;-73
2023/01/14 12:55:40;;;;;;;;;;;;;;;13.33;61.68;99137.63;4970655;28;6784;-73
2023/01/14 12:58:23;;;;;;;;;;;;;;;13.35;61.73;99117.06;4993491;28;6871;-73
2023/01/14 13:01:06;;;;;;;;;;;;;;;13.34;62.31;99130.78;4958164;28;6844;-73
2023/01/14 13:04:06;;;;;;;;;;;;;;;13.38;62.88;99111.97;4965999;28;7162;-73
2023/01/14 13:06:37;;;;;;;;;;;;;;;13.41;62.15;99118.88;4953263;28;8659;-73
2023/01/14 13:09:18;;;;;;;;;;;;;;;13.41;62.06;99095.72;4983526;28;6796;-72
2023/01/14 13:11:48;;;;;;;;;;;;;;;13.33;62.54;99067.28;4966469;28;6995;-73
2023/01/14 13:14:35;;;;;;;;;;;;;;;13.35;62.84;99081.03;4967311;28;6927;-73
2023/01/14 13:17:31;;;;;;;;;;;;;;;13.40;61.87;99051.09;4974872;28;6808;-73
2023/01/14 13:19:58;;;;;;;;;;;;;;;13.39;62.40;99061.38;4992364;28;6800;-72
2023/01/14 13:22:43;;;;;;;;;;;;;;;13.42;61.85;99031.41;4968942;28;6800;-73
2023/01/14 13:25:40;;;;;;;;;;;;;;;13.39;62.26;99003.03;4986212;28;6807;-73
2023/01/14 13:28:12;;;;;;;;;;;;;;;13.36;62.09;99031.31;4983581;28;6792;-73
2023/01/14 13:31:11;;;;;;;;;;;;;;;13.34;63.35;99008.13;4980684;28;7195;-72
2023/01/14 13:33:39;;;;;;;;;;;;;;;13.35;62.45;99024.44;4981380;28;6888;-73
2023/01/14 13:36:11;;;;;;;;;;;;;;;13.42;62.39;99023.69;4964104;28;6938;-73
2023/01/14 13:38:59;;;;;;;;;;;;;;;13.45;62.92;99016.03;4974794;28;6991;-73
2023/01/14 13:41:39;;;;;;;;;;;;;;;13.42;62.91;99018.53;4982638;28;6872;-73
2023/01/14 13:44:19;;;;;;;;;;;;;;;13.41;63.19;98993.63;4972003;28;6886;-72
2023/01/14 13:46:58;;;;;;;;;;;;;;;13.41;63.28;99023.66;4995287;28;7173;-73
2023/01/14 13:49:37;;;;;;;;;;;;;;;13.44;62.96;98974.78;4970872;28;7017;-72
2023/01/14 13:52:15;;;;;;;;;;;;;;;13.43;62.45;99001.38;4972052;28;6792;-72
2023/01/14 13:54:44;;;;;;;;;;;;;;;13.42;62.57;99010.81;4969341;28;7230;-72
2023/01/14 13:57:19;;;;;;;;;;;;;;;13.44;62.54;98993.72;4986325;28;7219;-72
2023/01/14 14:00:07;;;;;;;;;;;;;;;13.48;62.94;98984.34;4981904;28;7188;-72
2023/01/14 14:02:49;;;;;;;;;;;;;;;13.45;63.02;98980.00;4966827;28;7201;-72
2023/01/14 14:05:33;;;;;;;;;;;;;;;13.50;62.84;98969.75;4980377;28;7323;-72
2023/01/14 14:08:04;;;;;;;;;;;;;;;13.43;63.59;98971.38;4966122;28;8023;-73